createdAt,value
2022-09-28T00:00:51.829Z,96720.78
2022-09-28T00:02:58.558Z,96718.81
2022-09-28T00:05:03.401Z,96708.41
2022-09-28T00:07:08.401Z,96715.19
2022-09-28T00:09:13.461Z,96710.72
2022-09-28T00:11:18.937Z,96710.72
2022-09-28T00:13:23.787Z,96705.41
2022-09-28T00:15:28.536Z,96709.69
2022-09-28T00:17:36.511Z,96695.00
2022-09-28T00:19:43.174Z,96687.22
2022-09-28T00:21:48.092Z,96685.56
2022-09-28T00:24:08.177Z,96682.97
2022-09-28T00:26:12.945Z,96684.72
2022-09-28T00:28:17.656Z,96678.03
2022-09-28T00:30:22.798Z,96674.53
2022-09-28T00:32:28.157Z,96668.50
2022-09-28T00:34:36.635Z,96665.16
2022-09-28T00:36:41.645Z,96666.94
2022-09-28T00:38:46.479Z,96668.50
2022-09-28T00:40:51.296Z,96659.44
2022-09-28T00:42:56.640Z,96654.75
2022-09-28T00:45:01.453Z,96657.56
2022-09-28T00:47:16.478Z,96641.56
2022-09-28T00:49:25.706Z,96648.59
2022-09-28T00:51:37.108Z,96639.22
2022-09-28T00:53:46.223Z,96647.78
2022-09-28T00:55:54.806Z,96649.34
2022-09-28T00:58:03.019Z,96644.66
2022-09-28T01:00:10.157Z,96642.72
2022-09-28T01:02:15.018Z,96633.97
2022-09-28T01:04:20.278Z,96622.53
2022-09-28T01:06:27.580Z,96627.13
2022-09-28T01:08:37.130Z,96627.22
2022-09-28T01:10:43.608Z,96613.19
2022-09-28T01:12:48.343Z,96608.19
2022-09-28T01:14:55.044Z,96605.38
2022-09-28T01:17:08.446Z,96605.38
2022-09-28T01:19:36.741Z,96602.16
2022-09-28T01:21:53.171Z,96598.81
2022-09-28T01:24:17.473Z,96585.63
2022-09-28T01:26:48.670Z,96576.16
2022-09-28T01:29:03.770Z,96575.63
2022-09-28T01:31:15.118Z,96563.38
2022-09-28T01:33:25.179Z,96553.59
2022-09-28T01:35:35.541Z,96550.06
2022-09-28T01:37:47.723Z,96550.25
2022-09-28T01:39:55.115Z,96545.81
2022-09-28T01:42:08.486Z,96545.69
2022-09-28T01:44:18.078Z,96540.28
2022-09-28T01:46:27.409Z,96524.81
2022-09-28T01:48:38.143Z,96531.66
2022-09-28T01:50:48.338Z,96522.94
2022-09-28T01:52:57.262Z,96521.03
2022-09-28T01:55:09.258Z,96525.31
2022-09-28T01:57:21.799Z,96515.13
2022-09-28T01:59:30.041Z,96510.44
2022-09-28T02:01:42.151Z,96492.97
2022-09-28T02:03:53.361Z,96501.50
2022-09-28T02:06:01.645Z,96503.78
2022-09-28T02:08:11.789Z,96498.28
2022-09-28T02:10:21.477Z,96499.09
2022-09-28T02:12:35.827Z,96493.81
2022-09-28T02:14:44.093Z,96495.47
2022-09-28T02:16:51.868Z,96490.69
2022-09-28T02:19:03.446Z,96490.06
2022-09-28T02:21:16.119Z,96486.63
2022-09-28T02:23:25.013Z,96475.72
2022-09-28T02:25:36.869Z,96472.41
2022-09-28T02:27:50.272Z,96475.72
2022-09-28T02:29:55.118Z,96473.94
2022-09-28T02:31:59.957Z,96468.13
2022-09-28T02:34:05.450Z,96468.97
2022-09-28T02:36:10.939Z,96466.66
2022-09-28T02:38:17.712Z,96462.28
2022-09-28T02:40:28.118Z,96461.38
2022-09-28T02:42:46.284Z,96458.88
2022-09-28T02:45:07.806Z,96459.00
2022-09-28T02:47:20.391Z,96465.00
2022-09-28T02:49:34.504Z,96453.88
2022-09-28T02:51:48.663Z,96459.00
2022-09-28T02:54:19.979Z,96454.91
2022-09-28T02:56:55.018Z,96463.03
2022-09-28T02:59:12.945Z,96479.78
2022-09-28T03:01:29.881Z,96476.84
2022-09-28T03:03:44.314Z,96478.16
2022-09-28T03:05:59.030Z,96472.16
2022-09-28T03:08:07.034Z,96457.50
2022-09-28T03:10:19.708Z,96454.41
2022-09-28T03:12:29.384Z,96445.16
2022-09-28T03:14:34.704Z,96441.13
2022-09-28T03:16:46.219Z,96444.25
2022-09-28T03:18:51.277Z,96438.19
2022-09-28T03:20:56.369Z,96427.38
2022-09-28T03:23:23.264Z,96425.28
2022-09-28T03:25:26.276Z,96415.41
2022-09-28T03:27:31.019Z,96413.22
2022-09-28T03:29:36.258Z,96413.13
2022-09-28T03:31:48.677Z,96410.63
2022-09-28T03:33:54.325Z,96401.38
2022-09-28T03:35:59.139Z,96397.00
2022-09-28T03:38:04.321Z,96397.13
2022-09-28T03:40:12.804Z,96396.50
2022-09-28T03:42:17.595Z,96392.75
2022-09-28T03:44:26.418Z,96392.16
2022-09-28T03:46:31.278Z,96391.31
2022-09-28T03:48:44.344Z,96388.09
2022-09-28T03:50:49.538Z,96387.81
2022-09-28T03:52:54.415Z,96393.09
2022-09-28T03:54:59.946Z,96386.31
2022-09-28T03:57:05.013Z,96386.97
2022-09-28T03:59:10.171Z,96384.16
2022-09-28T04:01:17.824Z,96379.78
2022-09-28T04:03:25.688Z,96366.88
2022-09-28T04:05:33.306Z,96369.09
2022-09-28T04:07:38.283Z,96363.91
2022-09-28T04:09:43.125Z,96368.16
2022-09-28T04:12:03.306Z,96356.84
2022-09-28T04:14:09.730Z,96352.34
2022-09-28T04:16:15.857Z,96347.16
2022-09-28T04:18:27.462Z,96342.69
2022-09-28T04:20:51.272Z,96348.91
2022-09-28T04:22:56.035Z,96340.09
2022-09-28T04:25:00.841Z,96340.59
2022-09-28T04:27:18.091Z,96334.97
2022-09-28T04:29:23.743Z,96329.03
2022-09-28T04:31:40.101Z,96331.44
2022-09-28T04:33:44.969Z,96326.00
2022-09-28T04:35:52.282Z,96323.84
2022-09-28T04:37:57.255Z,96325.25
2022-09-28T04:40:02.195Z,96320.56
2022-09-28T04:42:08.998Z,96341.16
2022-09-28T04:44:13.833Z,96319.19
2022-09-28T04:46:18.729Z,96323.03
2022-09-28T04:48:35.220Z,96315.84
2022-09-28T04:51:06.852Z,96320.22
2022-09-28T04:53:12.445Z,96312.50
2022-09-28T04:55:18.472Z,96312.28
2022-09-28T04:57:26.321Z,96317.38
2022-09-28T04:59:32.563Z,96306.97
2022-09-28T05:01:38.243Z,96302.09
2022-09-28T05:03:43.014Z,96308.97
2022-09-28T05:06:09.719Z,96310.63
2022-09-28T05:08:19.479Z,96308.75
2022-09-28T05:10:24.337Z,96308.75
2022-09-28T05:12:31.371Z,96309.28
2022-09-28T05:14:37.325Z,96300.41
2022-09-28T05:16:43.156Z,96296.06
2022-09-28T05:19:00.324Z,96286.09
2022-09-28T05:21:12.915Z,96294.81
2022-09-28T05:23:18.564Z,96288.69
2022-09-28T05:25:24.151Z,96293.56
2022-09-28T05:27:41.415Z,96288.03
2022-09-28T05:30:00.369Z,96285.22
2022-09-28T05:32:08.326Z,96280.13
2022-09-28T05:34:17.189Z,96281.66
2022-09-28T05:36:26.850Z,96307.44
2022-09-28T05:38:32.356Z,96303.91
2022-09-28T05:40:36.978Z,96298.69
2022-09-28T05:42:42.209Z,96301.94
2022-09-28T05:44:47.051Z,96305.13
2022-09-28T05:46:51.790Z,96300.88
2022-09-28T05:48:57.013Z,96302.63
2022-09-28T05:51:01.843Z,96300.25
2022-09-28T05:53:10.999Z,96304.53
2022-09-28T05:55:16.311Z,96304.63
2022-09-28T05:57:21.678Z,96303.69
2022-09-28T05:59:26.563Z,96290.56
2022-09-28T06:01:31.374Z,96296.09
2022-09-28T06:03:37.605Z,96295.03
2022-09-28T06:05:43.020Z,96283.81
2022-09-28T06:07:48.004Z,96293.41
2022-09-28T06:09:55.818Z,96286.19
2022-09-28T06:12:15.999Z,96295.31
2022-09-28T06:14:23.689Z,96288.00
2022-09-28T06:16:28.508Z,96295.47
2022-09-28T06:18:33.534Z,96283.41
2022-09-28T06:20:50.419Z,96297.00
2022-09-28T06:22:57.768Z,96294.91
2022-09-28T06:25:05.424Z,96309.78
2022-09-28T06:27:10.256Z,96310.19
2022-09-28T06:29:19.818Z,96309.38
2022-09-28T06:31:26.288Z,96311.97
2022-09-28T06:33:32.276Z,96324.63
2022-09-28T06:35:38.697Z,96326.06
2022-09-28T06:37:47.346Z,96332.56
2022-09-28T06:39:52.266Z,96322.75
2022-09-28T06:42:04.460Z,96332.06
2022-09-28T06:44:29.187Z,96326.72
2022-09-28T06:47:02.247Z,96326.91
2022-09-28T06:49:33.039Z,96332.97
2022-09-28T06:51:57.734Z,96326.91
2022-09-28T06:54:25.653Z,96341.16
2022-09-28T06:56:40.375Z,96345.75
2022-09-28T06:58:47.772Z,96343.16
2022-09-28T07:00:54.609Z,96353.34
2022-09-28T07:03:00.043Z,96354.25
2022-09-28T07:05:26.743Z,96351.41
2022-09-28T07:07:55.242Z,96366.44
2022-09-28T07:10:18.644Z,96364.19
2022-09-28T07:12:42.110Z,96366.16
2022-09-28T07:15:03.932Z,96367.13
2022-09-28T07:17:14.187Z,96371.88
2022-09-28T07:19:19.971Z,96374.25
2022-09-28T07:21:29.518Z,96385.63
2022-09-28T07:23:48.807Z,96378.53
2022-09-28T07:26:08.599Z,96374.91
2022-09-28T07:28:46.272Z,96380.34
2022-09-28T07:31:11.978Z,96389.25
2022-09-28T07:33:43.702Z,96389.38
2022-09-28T07:36:03.313Z,96392.75
2022-09-28T07:38:10.226Z,96416.91
2022-09-28T07:40:27.911Z,96417.22
2022-09-28T07:42:33.450Z,96415.34
2022-09-28T07:44:41.083Z,96412.16
2022-09-28T07:46:48.782Z,96400.25
2022-09-28T07:49:08.391Z,96425.66
2022-09-28T07:51:45.579Z,96423.84
2022-09-28T07:54:17.913Z,96428.44
2022-09-28T07:56:42.936Z,96452.31
2022-09-28T07:58:54.971Z,96460.03
2022-09-28T08:01:20.298Z,96465.94
2022-09-28T08:03:28.186Z,96468.31
2022-09-28T08:05:35.898Z,96459.06
2022-09-28T08:07:40.984Z,96456.38
2022-09-28T08:09:48.248Z,96471.69
2022-09-28T08:12:19.777Z,96465.13
2022-09-28T08:14:37.624Z,96460.22
2022-09-28T08:17:09.334Z,96474.28
2022-09-28T08:19:26.283Z,96458.56
2022-09-28T08:21:43.600Z,96466.97
2022-09-28T08:23:48.672Z,96470.63
2022-09-28T08:25:55.325Z,96462.19
2022-09-28T08:28:01.163Z,96461.66
2022-09-28T08:30:10.240Z,96462.28
2022-09-28T08:32:20.021Z,96458.53
2022-09-28T08:34:46.181Z,96455.84
2022-09-28T08:37:29.793Z,96451.69
2022-09-28T08:39:46.533Z,96449.72
2022-09-28T08:42:08.921Z,96453.03
2022-09-28T08:44:46.327Z,96436.16
2022-09-28T08:47:08.510Z,96457.88
2022-09-28T08:49:26.570Z,96439.56
2022-09-28T08:51:54.016Z,96455.34
2022-09-28T08:54:12.156Z,96457.31
2022-09-28T08:56:44.393Z,96453.34
2022-09-28T08:58:58.832Z,96441.69
2022-09-28T09:01:06.664Z,96456.69
2022-09-28T09:03:16.693Z,96458.69
2022-09-28T09:05:36.022Z,96453.34
2022-09-28T09:07:59.647Z,96467.56
2022-09-28T09:10:14.883Z,96466.19
2022-09-28T09:12:30.511Z,96444.13
2022-09-28T09:14:59.911Z,96458.25
2022-09-28T09:17:14.128Z,96466.56
2022-09-28T09:19:49.298Z,96471.88
2022-09-28T09:22:05.179Z,96488.28
2022-09-28T09:24:25.080Z,96470.78
2022-09-28T09:26:39.320Z,96466.91
2022-09-28T09:29:12.332Z,96458.91
2022-09-28T09:31:35.471Z,96463.06
2022-09-28T09:34:04.518Z,96469.72
2022-09-28T09:36:47.363Z,96469.78
2022-09-28T09:39:28.040Z,96469.44
2022-09-28T09:42:07.311Z,96462.91
2022-09-28T09:44:58.704Z,96461.78
2022-09-28T09:47:28.775Z,96459.50
2022-09-28T09:49:39.332Z,96458.69
2022-09-28T09:51:48.714Z,96462.28
2022-09-28T09:54:00.157Z,96465.81
2022-09-28T09:56:17.169Z,96455.00
2022-09-28T09:58:39.482Z,96462.88
2022-09-28T10:01:00.116Z,96459.06
2022-09-28T10:03:29.563Z,96451.31
2022-09-28T10:05:50.890Z,96446.06
2022-09-28T10:08:04.072Z,96440.16
2022-09-28T10:10:15.173Z,96449.41
2022-09-28T10:12:29.248Z,96451.03
2022-09-28T10:14:34.039Z,96448.81
2022-09-28T10:16:48.159Z,96441.91
2022-09-28T10:19:02.426Z,96448.28
2022-09-28T10:21:26.948Z,96443.69
2022-09-28T10:23:52.985Z,96445.53
2022-09-28T10:26:04.920Z,96464.78
2022-09-28T10:28:18.912Z,96460.28
2022-09-28T10:30:25.739Z,96465.41
2022-09-28T10:32:40.354Z,96460.66
2022-09-28T10:34:50.176Z,96460.44
2022-09-28T10:37:00.694Z,96460.69
2022-09-28T10:39:27.341Z,96472.59
2022-09-28T10:41:34.114Z,96470.59
2022-09-28T10:44:06.443Z,96478.91
2022-09-28T10:46:37.202Z,96471.78
2022-09-28T10:48:55.153Z,96475.00
2022-09-28T10:51:08.883Z,96464.13
2022-09-28T10:53:20.015Z,96463.22
2022-09-28T10:55:43.288Z,96453.75
2022-09-28T10:57:48.315Z,96464.75
2022-09-28T10:59:56.364Z,96460.84
2022-09-28T11:02:04.591Z,96465.91
2022-09-28T11:04:10.581Z,96455.84
2022-09-28T11:06:18.769Z,96464.25
2022-09-28T11:08:29.504Z,96455.84
2022-09-28T11:10:37.498Z,96453.56
2022-09-28T11:12:52.942Z,96454.66
2022-09-28T11:15:04.758Z,96450.03
2022-09-28T11:17:30.066Z,96446.28
2022-09-28T11:19:35.768Z,96438.56
2022-09-28T11:21:47.151Z,96443.78
2022-09-28T11:24:05.996Z,96435.78
2022-09-28T11:26:18.331Z,96438.22
2022-09-28T11:28:29.890Z,96450.13
2022-09-28T11:30:42.527Z,96445.75
2022-09-28T11:33:06.504Z,96447.56
2022-09-28T11:35:47.025Z,96458.81
2022-09-28T11:38:13.127Z,96450.53
2022-09-28T11:40:54.402Z,96453.97
2022-09-28T11:43:12.322Z,96454.94
2022-09-28T11:45:33.336Z,96453.03
2022-09-28T11:47:50.574Z,96458.84
2022-09-28T11:50:02.872Z,96456.81
2022-09-28T11:52:25.610Z,96461.31
2022-09-28T11:54:35.256Z,96467.75
2022-09-28T11:56:44.450Z,96464.19
2022-09-28T11:58:53.704Z,96459.44
2022-09-28T12:01:10.341Z,96458.72
2022-09-28T12:03:45.224Z,96456.09
2022-09-28T12:05:54.791Z,96460.50
2022-09-28T12:08:02.904Z,96450.16
2022-09-28T12:10:45.570Z,96455.31
2022-09-28T12:12:57.136Z,96459.00
2022-09-28T12:15:08.055Z,96449.88
2022-09-28T12:17:20.921Z,96453.88
2022-09-28T12:19:33.613Z,96452.84
2022-09-28T12:21:43.566Z,96442.25
2022-09-28T12:23:51.549Z,96447.88
2022-09-28T12:26:00.297Z,96447.13
2022-09-28T12:28:10.180Z,96457.63
2022-09-28T12:30:19.380Z,96452.75
2022-09-28T12:32:32.366Z,96451.22
2022-09-28T12:34:39.826Z,96452.53
2022-09-28T12:36:54.447Z,96455.22
2022-09-28T12:39:35.727Z,96459.00
2022-09-28T12:41:50.224Z,96450.94
2022-09-28T12:44:06.704Z,96456.19
2022-09-28T12:46:28.319Z,96449.78
2022-09-28T12:51:47.788Z,96454.38
2022-09-28T12:54:04.657Z,96450.22
2022-09-28T12:56:21.602Z,96449.22
2022-09-28T12:58:49.383Z,96449.22
2022-09-28T13:01:04.379Z,96453.06
2022-09-28T13:03:47.676Z,96445.97
2022-09-28T13:06:17.877Z,96447.47
2022-09-28T13:08:34.486Z,96451.06
2022-09-28T13:10:44.474Z,96455.47
2022-09-28T13:13:05.281Z,96457.88
2022-09-28T13:15:29.261Z,96443.56
2022-09-28T13:17:45.949Z,96459.69
2022-09-28T13:19:54.289Z,96450.44
2022-09-28T13:22:09.655Z,96453.75
2022-09-28T13:24:33.505Z,96449.38
2022-09-28T13:26:44.184Z,96455.94
2022-09-28T13:28:52.149Z,96447.19
2022-09-28T13:33:08.767Z,96442.19
2022-09-28T13:35:19.504Z,96448.78
2022-09-28T13:37:26.949Z,96449.19
2022-09-28T13:39:52.258Z,96444.34
2022-09-28T13:42:00.144Z,96447.13
2022-09-28T13:44:32.473Z,96449.91
2022-09-28T13:46:43.714Z,96450.03
2022-09-28T13:49:00.170Z,96449.78
2022-09-28T13:51:14.638Z,96450.09
2022-09-28T13:53:27.852Z,96456.63
2022-09-28T13:55:44.441Z,96452.19
2022-09-28T13:57:56.003Z,96450.91
2022-09-28T14:00:10.511Z,96462.13
2022-09-28T14:02:30.720Z,96466.59
2022-09-28T14:04:57.730Z,96462.25
2022-09-28T14:07:13.818Z,96465.31
2022-09-28T14:09:44.542Z,96466.28
2022-09-28T14:12:01.491Z,96471.34
2022-09-28T14:14:26.078Z,96476.88
2022-09-28T14:16:33.345Z,96474.06
2022-09-28T14:18:39.670Z,96474.66
2022-09-28T14:20:56.162Z,96467.25
2022-09-28T14:23:28.134Z,96460.13
2022-09-28T14:25:36.110Z,96465.63
2022-09-28T14:28:03.077Z,96470.84
2022-09-28T14:30:22.882Z,96468.19
2022-09-28T14:32:36.227Z,96462.31
2022-09-28T14:34:44.169Z,96471.28
2022-09-28T14:37:04.446Z,96475.25
2022-09-28T14:39:37.664Z,96479.72
2022-09-28T14:41:45.892Z,96480.53
2022-09-28T14:44:05.395Z,96482.28
2022-09-28T14:46:38.292Z,96484.31
2022-09-28T14:48:49.656Z,96491.25
2022-09-28T14:50:55.842Z,96488.06
2022-09-28T14:53:07.381Z,96490.41
2022-09-28T14:55:18.310Z,96492.22
2022-09-28T14:57:27.031Z,96494.09
2022-09-28T14:59:36.612Z,96497.91
2022-09-28T15:01:42.314Z,96497.50
2022-09-28T15:03:51.111Z,96501.72
2022-09-28T15:05:55.975Z,96502.78
2022-09-28T15:08:01.934Z,96507.19
2022-09-28T15:10:27.659Z,96506.84
2022-09-28T15:12:33.891Z,96508.97
2022-09-28T15:14:54.031Z,96510.53
2022-09-28T15:17:03.487Z,96517.50
2022-09-28T15:19:26.379Z,96513.44
2022-09-28T15:21:39.838Z,96524.06
2022-09-28T15:23:48.055Z,96518.72
2022-09-28T15:25:55.146Z,96515.53
2022-09-28T15:28:03.519Z,96514.41
2022-09-28T15:30:25.474Z,96514.06
2022-09-28T15:32:32.336Z,96521.97
2022-09-28T15:34:51.313Z,96520.41
2022-09-28T15:36:56.465Z,96523.34
2022-09-28T15:39:08.806Z,96525.41
2022-09-28T15:41:13.819Z,96517.06
2022-09-28T15:43:29.185Z,96525.00
2022-09-28T15:45:44.673Z,96529.91
2022-09-28T15:47:49.434Z,96528.59
2022-09-28T15:50:00.038Z,96538.53
2022-09-28T15:52:05.063Z,96530.19
2022-09-28T15:54:19.770Z,96541.63
2022-09-28T15:56:25.051Z,96537.56
2022-09-28T15:58:29.909Z,96545.56
2022-09-28T16:00:35.352Z,96541.19
2022-09-28T16:03:01.486Z,96541.94
2022-09-28T16:05:07.164Z,96548.91
2022-09-28T16:07:27.924Z,96552.16
2022-09-28T16:09:40.907Z,96549.31
2022-09-28T16:11:49.895Z,96550.00
2022-09-28T16:14:01.854Z,96555.38
2022-09-28T16:16:06.731Z,96553.13
2022-09-28T16:18:23.682Z,96556.81
2022-09-28T16:20:32.228Z,96555.69
2022-09-28T16:22:37.013Z,96557.00
2022-09-28T16:24:42.087Z,96565.34
2022-09-28T16:26:46.978Z,96563.81
2022-09-28T16:28:53.773Z,96571.78
2022-09-28T16:31:07.598Z,96564.63
2022-09-28T16:33:40.693Z,96565.47
2022-09-28T16:35:53.518Z,96568.22
2022-09-28T16:38:04.056Z,96569.88
2022-09-28T16:40:10.316Z,96578.53
2022-09-28T16:42:15.763Z,96582.69
2022-09-28T16:44:26.267Z,96584.22
2022-09-28T16:46:37.503Z,96589.56
2022-09-28T16:48:48.915Z,96596.72
2022-09-28T16:50:55.273Z,96593.66
2022-09-28T16:53:17.063Z,96590.56
2022-09-28T16:55:39.590Z,96595.22
2022-09-28T16:57:45.433Z,96595.31
2022-09-28T16:59:50.189Z,96598.66
2022-09-28T17:01:56.667Z,96590.69
2022-09-28T17:04:04.784Z,96593.19
2022-09-28T17:06:13.970Z,96595.78
2022-09-28T17:08:20.265Z,96591.38
2022-09-28T17:10:31.928Z,96591.78
2022-09-28T17:12:37.751Z,96604.13
2022-09-28T17:14:43.031Z,96601.28
2022-09-28T17:17:07.295Z,96597.59
2022-09-28T17:19:23.805Z,96601.41
2022-09-28T17:21:29.335Z,96606.06
2022-09-28T17:23:34.477Z,96605.09
2022-09-28T17:25:40.534Z,96608.66
2022-09-28T17:27:48.146Z,96611.53
2022-09-28T17:29:52.941Z,96600.69
2022-09-28T17:31:57.711Z,96609.75
2022-09-28T17:34:02.594Z,96610.56
2022-09-28T17:36:15.869Z,96611.53
2022-09-28T17:38:20.636Z,96609.25
2022-09-28T17:40:28.486Z,96610.31
2022-09-28T17:42:33.533Z,96614.81
2022-09-28T17:44:38.510Z,96607.22
2022-09-28T17:46:48.740Z,96611.63
2022-09-28T17:48:53.805Z,96614.38
2022-09-28T17:50:59.935Z,96620.66
2022-09-28T17:53:07.955Z,96618.78
2022-09-28T17:55:12.922Z,96623.38
2022-09-28T17:57:17.724Z,96626.22
2022-09-28T17:59:22.491Z,96626.47
2022-09-28T18:01:30.235Z,96630.97
2022-09-28T18:03:35.157Z,96625.28
2022-09-28T18:05:40.441Z,96633.34
2022-09-28T18:07:47.804Z,96630.84
2022-09-28T18:09:58.626Z,96641.41
2022-09-28T18:12:07.329Z,96634.53
2022-09-28T18:14:12.442Z,96649.59
2022-09-28T18:16:19.716Z,96641.66
2022-09-28T18:18:25.067Z,96651.25
2022-09-28T18:20:29.995Z,96649.34
2022-09-28T18:22:34.809Z,96647.53
2022-09-28T18:24:39.910Z,96655.22
2022-09-28T18:26:47.278Z,96655.19
2022-09-28T18:28:56.274Z,96660.97
2022-09-28T18:31:01.128Z,96659.88
2022-09-28T18:33:06.366Z,96666.38
2022-09-28T18:35:13.034Z,96666.69
2022-09-28T18:37:17.918Z,96677.34
2022-09-28T18:39:23.891Z,96678.38
2022-09-28T18:41:29.427Z,96680.16
2022-09-28T18:43:37.227Z,96686.53
2022-09-28T18:45:42.341Z,96690.19
2022-09-28T18:47:47.782Z,96694.69
2022-09-28T18:49:53.071Z,96695.94
2022-09-28T18:51:57.631Z,96698.38
2022-09-28T18:54:07.202Z,96700.59
2022-09-28T18:56:14.600Z,96701.09
2022-09-28T18:58:19.333Z,96700.66
2022-09-28T19:00:26.729Z,96696.56
2022-09-28T19:02:32.096Z,96696.84
2022-09-28T19:04:37.064Z,96704.44
2022-09-28T19:06:44.559Z,96710.81
2022-09-28T19:08:55.603Z,96709.38
2022-09-28T19:11:09.480Z,96701.75
2022-09-28T19:13:14.280Z,96709.09
2022-09-28T19:15:19.589Z,96703.16
2022-09-28T19:17:27.014Z,96708.59
2022-09-28T19:19:31.912Z,96712.34
2022-09-28T19:21:36.791Z,96709.03
2022-09-28T19:23:44.816Z,96712.91
2022-09-28T19:25:53.041Z,96710.81
2022-09-28T19:27:58.186Z,96715.03
2022-09-28T19:30:03.395Z,96721.50
2022-09-28T19:32:08.253Z,96726.91
2022-09-28T19:34:16.286Z,96729.09
2022-09-28T19:36:23.797Z,96730.03
2022-09-28T19:38:31.090Z,96736.06
2022-09-28T19:40:39.755Z,96732.56
2022-09-28T19:42:44.637Z,96735.16
2022-09-28T19:44:49.948Z,96736.28
2022-09-28T19:46:56.138Z,96746.72
2022-09-28T19:49:03.280Z,96743.28
2022-09-28T19:51:11.032Z,96744.81
2022-09-28T19:53:16.010Z,96756.59
2022-09-28T19:55:21.275Z,96758.59
2022-09-28T19:57:26.216Z,96757.31
2022-09-28T19:59:31.027Z,96762.66
2022-09-28T20:01:36.130Z,96770.66
2022-09-28T20:03:40.932Z,96775.13
2022-09-28T20:05:45.844Z,96784.91
2022-09-28T20:07:53.429Z,96780.53
2022-09-28T20:09:58.335Z,96776.28
2022-09-28T20:12:03.602Z,96779.59
2022-09-28T20:14:10.045Z,96783.06
2022-09-28T20:16:16.749Z,96788.25
2022-09-28T20:18:21.829Z,96786.47
2022-09-28T20:20:27.016Z,96789.78
2022-09-28T20:22:32.067Z,96794.19
2022-09-28T20:24:39.484Z,96795.00
2022-09-28T20:26:44.469Z,96794.19
2022-09-28T20:28:49.647Z,96790.75
2022-09-28T20:30:54.936Z,96791.56
2022-09-28T20:33:00.158Z,96796.16
2022-09-28T20:35:04.934Z,96796.25
2022-09-28T20:37:09.888Z,96795.41
2022-09-28T20:39:15.194Z,96804.25
2022-09-28T20:41:24.758Z,96797.31
2022-09-28T20:43:31.289Z,96806.84
2022-09-28T20:45:38.439Z,96805.13
2022-09-28T20:47:43.271Z,96809.25
2022-09-28T20:49:48.183Z,96805.38
2022-09-28T20:51:52.907Z,96812.66
2022-09-28T20:53:59.299Z,96818.25
2022-09-28T20:56:05.915Z,96820.72
2022-09-28T20:58:13.248Z,96827.81
2022-09-28T21:00:18.549Z,96824.13
2022-09-28T21:02:23.170Z,96834.94
2022-09-28T21:04:28.082Z,96836.63
2022-09-28T21:06:35.002Z,96835.44
2022-09-28T21:08:39.757Z,96833.97
2022-09-28T21:10:47.175Z,96831.81
2022-09-28T21:12:53.306Z,96838.59
2022-09-28T21:15:05.540Z,96827.94
2022-09-28T21:17:10.735Z,96825.03
2022-09-28T21:19:15.527Z,96819.47
2022-09-28T21:21:21.725Z,96827.78
2022-09-28T21:23:26.735Z,96820.75
2022-09-28T21:25:31.504Z,96816.50
2022-09-28T21:27:36.895Z,96813.88
2022-09-28T21:29:41.718Z,96813.97
2022-09-28T21:31:50.013Z,96813.22
2022-09-28T21:33:54.742Z,96826.41
2022-09-28T21:36:03.320Z,96827.28
2022-09-28T21:38:08.363Z,96819.56
2022-09-28T21:40:13.505Z,96818.72
2022-09-28T21:42:18.329Z,96826.53
2022-09-28T21:44:23.088Z,96825.69
2022-09-28T21:46:33.721Z,96832.09
2022-09-28T21:48:41.259Z,96826.34
2022-09-28T21:50:46.012Z,96821.16
2022-09-28T21:52:51.180Z,96823.75
2022-09-28T21:54:55.921Z,96816.91
2022-09-28T21:57:01.230Z,96819.56
2022-09-28T21:59:05.708Z,96811.13
2022-09-28T22:01:14.662Z,96819.13
2022-09-28T22:03:19.672Z,96818.38
2022-09-28T22:05:28.191Z,96819.13
2022-09-28T22:07:32.950Z,96820.97
2022-09-28T22:09:37.665Z,96825.25
2022-09-28T22:11:42.403Z,96819.22
2022-09-28T22:13:48.799Z,96814.84
2022-09-28T22:15:55.650Z,96821.91
2022-09-28T22:18:01.020Z,96823.69
2022-09-28T22:20:05.574Z,96824.91
2022-09-28T22:22:12.939Z,96829.34
2022-09-28T22:24:17.791Z,96834.81
2022-09-28T22:26:23.974Z,96834.91
2022-09-28T22:28:28.749Z,96837.59
2022-09-28T22:30:33.655Z,96833.25
2022-09-28T22:32:38.476Z,96831.50
2022-09-28T22:34:43.264Z,96834.16
2022-09-28T22:36:48.445Z,96834.16
2022-09-28T22:38:57.462Z,96839.16
2022-09-28T22:41:03.853Z,96836.50
2022-09-28T22:43:08.845Z,96837.22
2022-09-28T22:45:13.674Z,96839.81
2022-09-28T22:47:18.414Z,96837.97
2022-09-28T22:49:23.800Z,96842.16
2022-09-28T22:51:30.213Z,96841.13
2022-09-28T22:53:35.749Z,96837.50
2022-09-28T22:55:43.950Z,96837.41
2022-09-28T22:57:48.664Z,96840.94
2022-09-28T22:59:53.468Z,96837.50
2022-09-28T23:01:58.539Z,96838.34
2022-09-28T23:04:03.706Z,96846.03
2022-09-28T23:06:09.409Z,96834.53
2022-09-28T23:08:14.142Z,96842.13
2022-09-28T23:10:18.939Z,96838.50
2022-09-28T23:12:26.494Z,96842.69
2022-09-28T23:14:31.350Z,96840.94
2022-09-28T23:16:36.096Z,96839.97
2022-09-28T23:18:43.750Z,96851.31
2022-09-28T23:20:55.693Z,96855.69
2022-09-28T23:23:00.413Z,96851.91
2022-09-28T23:25:05.171Z,96854.88
2022-09-28T23:27:09.958Z,96855.31
2022-09-28T23:29:17.343Z,96863.50
2022-09-28T23:31:24.486Z,96862.75
2022-09-28T23:33:29.363Z,96856.06
2022-09-28T23:35:35.867Z,96862.34
2022-09-28T23:37:40.888Z,96862.53
2022-09-28T23:39:46.271Z,96863.56
2022-09-28T23:41:51.408Z,96863.56
2022-09-28T23:43:56.133Z,96859.56
2022-09-28T23:46:03.577Z,96861.50
2022-09-28T23:48:08.654Z,96862.53
2022-09-28T23:50:13.406Z,96865.22
2022-09-28T23:52:18.171Z,96860.94
2022-09-28T23:54:22.904Z,96862.72
2022-09-28T23:56:27.586Z,96861.06
2022-09-28T23:58:32.386Z,96861.13
